Time;durP1;ratioP1;P1;durP2;ratioP2;P2;SDS_P1;SDS_P2;PMS_P1;PMS_P2;Temp;Humidity;BMP_temperature;BMP_pressure;BME280_temperature;BME280_humidity;BME280_pressure;Samples;Min_cycle;Max_cycle;Signal;HPM_P1;HPM_P2
2021/12/07 00:00:51;;;;;;;138.35;75.63;;;-0.40;99.90;;;;;;5056320;28;20490;-83
2021/12/07 00:03:16;;;;;;;133.07;75.10;;;-0.40;99.90;;;;;;5048681;28;20401;-84
2021/12/07 00:05:42;;;;;;;136.30;75.05;;;-0.40;99.90;;;;;;5068653;28;20390;-84
2021/12/07 00:08:08;;;;;;;130.93;74.53;;;-0.40;99.90;;;;;;5066259;28;20408;-83
2021/12/07 00:10:35;;;;;;;123.00;72.40;;;-0.40;99.90;;;;;;5059365;28;20394;-84
2021/12/07 00:13:01;;;;;;;131.02;72.45;;;-0.40;99.90;;;;;;5054493;28;20479;-85
2021/12/07 00:15:29;;;;;;;125.38;72.72;;;-0.50;99.90;;;;;;5054915;28;20468;-84
2021/12/07 00:17:55;;;;;;;125.28;70.80;;;-0.50;99.90;;;;;;5050841;28;20380;-83
2021/12/07 00:20:23;;;;;;;119.70;69.85;;;-0.50;99.90;;;;;;5053326;28;20720;-84
2021/12/07 00:22:53;;;;;;;123.97;70.90;;;-0.50;99.90;;;;;;5053092;28;20402;-84
2021/12/07 00:25:19;;;;;;;123.55;70.15;;;-0.50;99.90;;;;;;5056934;28;20394;-84
2021/12/07 00:27:45;;;;;;;115.22;66.78;;;-0.40;99.90;;;;;;5061331;28;20428;-84
2021/12/07 00:30:12;;;;;;;116.87;67.67;;;-0.40;99.90;;;;;;5050242;28;20803;-83
2021/12/07 00:32:43;;;;;;;119.35;68.78;;;-0.30;99.90;;;;;;5054663;28;20387;-84
2021/12/07 00:37:49;;;;;;;110.80;65.93;;;-0.10;99.90;;;;;;5068782;28;20451;-84
2021/12/07 00:40:17;;;;;;;117.43;67.38;;;0.00;99.90;;;;;;5065577;28;20411;-84
2021/12/07 00:42:43;;;;;;;116.80;69.10;;;0.00;99.90;;;;;;5067078;28;20406;-85
2021/12/07 00:45:10;;;;;;;116.05;66.47;;;0.00;99.90;;;;;;5069844;28;20394;-84
2021/12/07 00:47:36;;;;;;;119.20;68.60;;;0.00;99.90;;;;;;5057080;28;20384;-86
2021/12/07 00:50:04;;;;;;;115.70;67.18;;;0.10;99.90;;;;;;5051066;28;20529;-85
2021/12/07 00:52:30;;;;;;;113.47;65.72;;;0.10;99.90;;;;;;5052612;28;20397;-83
2021/12/07 00:54:55;;;;;;;107.38;64.47;;;0.10;99.90;;;;;;5054554;28;20387;-84
2021/12/07 00:57:21;;;;;;;111.77;65.03;;;0.10;99.90;;;;;;5051186;28;20388;-84
2021/12/07 00:59:47;;;;;;;111.03;63.67;;;0.10;99.90;;;;;;5051519;28;20380;-85
2021/12/07 01:02:13;;;;;;;102.73;63.33;;;0.10;99.90;;;;;;5050454;28;20404;-85
2021/12/07 01:04:39;;;;;;;103.93;62.93;;;0.20;99.90;;;;;;5062842;28;20491;-85
2021/12/07 01:07:16;;;;;;;103.93;62.30;;;0.20;99.90;;;;;;5070454;28;20382;-84
2021/12/07 01:24:39;;;;;;;101.17;61.77;;;0.10;99.90;;;;;;5059968;28;20910;-84
2021/12/07 01:26:08;;;;;;;96.05;60.60;;;-0.10;99.90;;;;;;5057392;28;20401;-83
2021/12/07 01:28:39;;;;;;;96.87;61.33;;;-0.10;99.90;;;;;;5059490;28;20390;-85
2021/12/07 01:34:14;;;;;;;94.63;61.03;;;-0.20;99.90;;;;;;5057261;28;20386;-83
2021/12/07 01:47:09;;;;;;;88.40;56.65;;;-0.20;99.90;;;;;;5065868;28;20807;-84
2021/12/07 02:00:15;;;;;;;79.70;52.38;;;-0.40;99.90;;;;;;5052352;28;20434;-84
2021/12/07 02:02:41;;;;;;;78.70;53.17;;;-0.40;99.90;;;;;;5060023;28;20485;-83
2021/12/07 02:05:07;;;;;;;76.93;52.53;;;-0.40;99.90;;;;;;5060133;28;20457;-84
2021/12/07 02:07:33;;;;;;;76.60;52.53;;;-0.50;99.90;;;;;;5062108;28;20445;-82
2021/12/07 02:10:05;;;;;;;76.82;52.85;;;-0.40;99.90;;;;;;5062916;28;20406;-83
2021/12/07 02:12:41;;;;;;;72.03;51.17;;;-0.50;99.90;;;;;;5060851;28;20407;-83
2021/12/07 02:15:09;;;;;;;76.00;51.95;;;-0.50;99.90;;;;;;5048330;28;20409;-83
2021/12/07 02:17:35;;;;;;;71.80;51.08;;;-0.50;99.90;;;;;;5051784;28;20391;-83
2021/12/07 02:20:00;;;;;;;72.05;50.60;;;-0.50;99.90;;;;;;5048633;28;20392;-84
2021/12/07 02:22:26;;;;;;;72.32;49.97;;;-0.60;99.90;;;;;;5048894;28;20406;-84
2021/12/07 02:24:52;;;;;;;69.50;49.35;;;-0.60;99.90;;;;;;5050840;28;20486;-84
2021/12/07 02:27:18;;;;;;;68.13;47.88;;;-0.60;99.90;;;;;;5050671;28;20745;-84
2021/12/07 02:29:44;;;;;;;67.83;48.03;;;-0.60;99.90;;;;;;5059058;28;20382;-83
2021/12/07 02:32:10;;;;;;;68.68;48.75;;;-0.60;99.90;;;;;;5063364;28;20900;-83
2021/12/07 02:34:42;;;;;;;66.67;48.23;;;-0.70;99.90;;;;;;5061385;28;20386;-83
2021/12/07 02:37:07;;;;;;;66.20;47.35;;;-0.70;99.90;;;;;;5066424;28;20411;-83
2021/12/07 02:39:39;;;;;;;63.45;47.17;;;-0.70;99.90;;;;;;5061074;28;20899;-84
2021/12/07 02:42:05;;;;;;;64.13;46.88;;;-0.70;99.90;;;;;;5049172;28;20439;-84
2021/12/07 02:44:32;;;;;;;62.28;46.45;;;-0.60;99.90;;;;;;5058281;28;20829;-84
2021/12/07 02:46:57;;;;;;;59.33;43.97;;;-0.60;99.90;;;;;;5065036;28;20390;-85
2021/12/07 02:49:24;;;;;;;61.20;44.33;;;-0.60;99.90;;;;;;5062724;28;20390;-83
2021/12/07 02:51:50;;;;;;;58.17;44.47;;;-0.60;99.90;;;;;;5065527;28;20405;-83
2021/12/07 02:54:15;;;;;;;60.07;45.23;;;-0.60;99.90;;;;;;5062089;28;20896;-82
2021/12/07 02:56:42;;;;;;;59.90;44.43;;;-0.50;99.90;;;;;;5049978;28;20491;-83
2021/12/07 02:59:08;;;;;;;56.23;42.57;;;-0.50;99.90;;;;;;5061900;28;20979;-83
2021/12/07 03:01:40;;;;;;;59.27;43.43;;;-0.50;99.90;;;;;;5059987;28;20502;-84
2021/12/07 03:04:11;;;;;;;54.72;42.40;;;-0.40;99.90;;;;;;5062279;28;20431;-84
2021/12/07 03:06:55;;;;;;;55.47;42.33;;;-0.50;99.90;;;;;;5051193;28;20503;-84
2021/12/07 03:26:10;;;;;;;54.97;40.87;;;-0.50;99.90;;;;;;5062909;28;21673;-84
2021/12/07 03:28:50;;;;;;;53.30;40.63;;;-0.60;99.90;;;;;;5047591;28;20402;-83
2021/12/07 03:31:18;;;;;;;51.65;40.90;;;-0.60;99.90;;;;;;5059512;28;20407;-84
2021/12/07 03:33:44;;;;;;;53.30;40.85;;;-0.70;99.90;;;;;;5059333;28;20389;-83
2021/12/07 03:36:11;;;;;;;52.50;39.85;;;-0.70;99.90;;;;;;5056276;28;20484;-84
2021/12/07 03:38:38;;;;;;;49.22;38.78;;;-0.70;99.90;;;;;;5049321;28;20383;-85
2021/12/07 03:41:04;;;;;;;52.60;40.47;;;-0.70;99.90;;;;;;5056091;28;20419;-84
2021/12/07 03:43:30;;;;;;;49.47;38.15;;;-0.80;99.90;;;;;;5064734;28;20378;-84
2021/12/07 03:45:56;;;;;;;51.88;39.70;;;-0.70;99.90;;;;;;5063509;28;20391;-83
2021/12/07 03:48:21;;;;;;;49.17;38.90;;;-0.70;99.90;;;;;;5058290;28;20479;-84
2021/12/07 03:50:47;;;;;;;48.20;38.35;;;-0.70;99.90;;;;;;5064669;28;20385;-83
2021/12/07 03:53:14;;;;;;;51.03;38.97;;;-0.70;99.90;;;;;;5053981;28;20380;-83
2021/12/07 03:55:41;;;;;;;50.42;39.20;;;-0.80;99.90;;;;;;5057786;28;20376;-84
2021/12/07 03:58:06;;;;;;;54.87;41.87;;;-0.80;99.90;;;;;;5067507;28;20379;-84
2021/12/07 04:00:35;;;;;;;52.77;39.90;;;-0.80;99.90;;;;;;5067415;28;20390;-83
2021/12/07 04:03:07;;;;;;;56.17;40.88;;;-0.80;99.90;;;;;;5066291;28;20377;-83
2021/12/07 04:05:33;;;;;;;54.40;42.10;;;-0.90;99.90;;;;;;5061073;28;20898;-84
2021/12/07 04:07:58;;;;;;;56.95;42.60;;;-0.90;99.90;;;;;;5064008;28;20472;-85
2021/12/07 04:10:25;;;;;;;52.95;41.85;;;-0.90;99.90;;;;;;5060491;28;20820;-83
2021/12/07 04:12:52;;;;;;;55.80;42.60;;;-0.90;99.90;;;;;;5050975;28;20400;-84
2021/12/07 04:15:18;;;;;;;57.90;43.20;;;-0.80;99.90;;;;;;5050984;28;20768;-84
2021/12/07 04:17:46;;;;;;;56.70;43.80;;;-0.90;99.90;;;;;;5062519;28;20386;-84
2021/12/07 04:20:13;;;;;;;59.22;45.42;;;-0.80;99.90;;;;;;5063158;28;20416;-84
2021/12/07 04:22:39;;;;;;;57.47;43.85;;;-0.80;99.90;;;;;;5066135;28;20798;-84
2021/12/07 04:25:10;;;;;;;59.15;44.22;;;-0.80;99.90;;;;;;5061584;28;20439;-84
2021/12/07 04:27:38;;;;;;;60.40;44.72;;;-0.80;99.90;;;;;;5059862;28;20448;-84
2021/12/07 04:30:15;;;;;;;57.35;44.65;;;-0.80;99.90;;;;;;5056097;28;20750;-84
2021/12/07 04:32:41;;;;;;;58.97;45.58;;;-0.70;99.90;;;;;;5055237;28;20479;-84
2021/12/07 04:35:10;;;;;;;60.90;45.80;;;-0.80;99.90;;;;;;5057621;28;20384;-84
2021/12/07 04:37:36;;;;;;;61.85;45.20;;;-0.80;99.90;;;;;;5053739;28;20380;-84
2021/12/07 04:40:04;;;;;;;62.97;45.97;;;-0.70;99.90;;;;;;5052870;28;20759;-84
2021/12/07 04:42:29;;;;;;;62.88;47.60;;;-0.80;99.90;;;;;;5066957;28;20417;-84
2021/12/07 04:44:59;;;;;;;66.75;48.55;;;-0.80;99.90;;;;;;5066033;28;20385;-84
2021/12/07 04:47:36;;;;;;;63.35;48.03;;;-0.90;99.90;;;;;;5060109;28;20402;-84
2021/12/07 04:58:02;;;;;;;65.28;49.88;;;-0.90;99.90;;;;;;5064185;28;20435;-84
2021/12/07 05:00:29;;;;;;;64.97;49.13;;;-0.90;99.90;;;;;;5060403;28;20390;-84
2021/12/07 05:03:02;;;;;;;71.22;51.83;;;-0.90;99.90;;;;;;5060711;28;20409;-84
2021/12/07 05:05:33;;;;;;;71.87;52.10;;;-1.00;99.90;;;;;;5065730;28;20460;-84
2021/12/07 05:08:04;;;;;;;69.93;51.90;;;-1.00;99.90;;;;;;5067635;28;20385;-84
2021/12/07 05:39:53;;;;;;;76.67;55.43;;;-0.80;99.90;;;;;;5056311;28;20463;-84
2021/12/07 05:42:21;;;;;;;79.53;58.05;;;-0.80;99.90;;;;;;5049834;28;20419;-84
2021/12/07 05:44:46;;;;;;;81.05;58.00;;;-0.80;99.90;;;;;;5063049;28;20382;-84
2021/12/07 05:47:13;;;;;;;81.37;58.20;;;-0.80;99.90;;;;;;5069818;28;20517;-83
2021/12/07 05:49:38;;;;;;;79.80;57.38;;;-0.80;99.90;;;;;;5062065;28;20910;-84
2021/12/07 05:52:04;;;;;;;78.38;57.33;;;-0.70;99.90;;;;;;5053299;28;20398;-84
2021/12/07 05:54:30;;;;;;;83.85;57.65;;;-0.70;99.90;;;;;;5066305;28;20445;-84
2021/12/07 05:56:56;;;;;;;77.68;57.13;;;-0.80;99.90;;;;;;5055870;28;20380;-84
2021/12/07 05:59:21;;;;;;;82.22;59.08;;;-0.70;99.90;;;;;;5048624;28;20442;-84
2021/12/07 06:01:47;;;;;;;78.97;57.93;;;-0.70;99.90;;;;;;5055019;28;20407;-84
2021/12/07 06:04:13;;;;;;;77.75;56.72;;;-0.70;99.90;;;;;;5054225;28;20446;-84
2021/12/07 06:06:39;;;;;;;78.95;57.60;;;-0.70;99.90;;;;;;5053949;28;20784;-84
2021/12/07 06:09:05;;;;;;;76.80;55.92;;;-0.70;99.90;;;;;;5056496;28;20416;-84
2021/12/07 06:11:31;;;;;;;77.97;57.20;;;-0.70;99.90;;;;;;5053656;28;20384;-83
2021/12/07 06:13:57;;;;;;;74.47;56.58;;;-0.80;99.90;;;;;;5052556;28;20379;-83
2021/12/07 06:16:24;;;;;;;76.20;55.93;;;-0.70;99.90;;;;;;5050407;28;20387;-84
2021/12/07 06:18:50;;;;;;;77.90;57.67;;;-0.70;99.90;;;;;;5057873;28;20414;-83
2021/12/07 06:21:16;;;;;;;82.15;59.15;;;-0.80;99.90;;;;;;5052301;28;20407;-83
2021/12/07 06:23:41;;;;;;;76.05;57.03;;;-0.90;99.90;;;;;;5048727;28;20387;-84
2021/12/07 06:26:07;;;;;;;79.72;58.80;;;-0.90;99.90;;;;;;5050602;28;20459;-83
2021/12/07 06:28:33;;;;;;;83.23;58.07;;;-0.90;99.90;;;;;;5054562;28;20527;-83
2021/12/07 06:30:59;;;;;;;77.33;57.10;;;-0.90;99.90;;;;;;5048247;28;20412;-83
2021/12/07 06:33:26;;;;;;;77.70;57.57;;;-0.80;99.90;;;;;;5055948;28;20378;-84
2021/12/07 06:35:57;;;;;;;77.93;57.30;;;-0.80;99.90;;;;;;5067459;28;20782;-84
2021/12/07 06:38:28;;;;;;;76.68;56.67;;;-0.70;99.90;;;;;;5068695;28;20439;-84
2021/12/07 06:40:54;;;;;;;76.03;55.65;;;-0.70;99.90;;;;;;5052974;28;20866;-84
2021/12/07 06:43:21;;;;;;;72.43;53.73;;;-0.70;99.90;;;;;;5048160;28;20396;-84
2021/12/07 06:45:47;;;;;;;71.13;54.60;;;-0.60;99.90;;;;;;5043715;28;20402;-84
2021/12/07 06:48:13;;;;;;;75.47;54.67;;;-0.60;99.90;;;;;;5048102;28;20463;-84
2021/12/07 06:50:38;;;;;;;70.88;53.78;;;-0.60;99.90;;;;;;5048204;28;20711;-84
2021/12/07 06:53:04;;;;;;;69.80;53.67;;;-0.60;99.90;;;;;;5049145;28;20861;-85
2021/12/07 06:55:30;;;;;;;68.93;52.92;;;-0.60;99.90;;;;;;5061709;28;20368;-84
2021/12/07 06:57:55;;;;;;;69.57;53.80;;;-0.60;99.90;;;;;;5048836;28;20387;-84
2021/12/07 07:00:21;;;;;;;71.93;53.57;;;-0.50;99.90;;;;;;5049151;28;20415;-84
2021/12/07 07:02:47;;;;;;;69.07;53.47;;;-0.50;99.90;;;;;;5048120;28;20407;-84
2021/12/07 07:05:13;;;;;;;67.72;51.28;;;-0.40;99.90;;;;;;5067138;28;20370;-84
2021/12/07 07:07:40;;;;;;;66.88;51.40;;;-0.40;99.90;;;;;;5047529;28;21970;-84
2021/12/07 07:10:08;;;;;;;63.90;51.38;;;-0.40;99.90;;;;;;5060598;28;20895;-84
2021/12/07 07:12:34;;;;;;;65.95;51.67;;;-0.40;99.90;;;;;;5060379;28;20396;-83
2021/12/07 07:15:00;;;;;;;67.43;51.97;;;-0.40;99.90;;;;;;5049044;28;20517;-83
2021/12/07 07:17:27;;;;;;;64.22;49.35;;;-0.40;99.90;;;;;;5054117;28;20386;-85
2021/12/07 07:19:52;;;;;;;64.75;49.65;;;-0.40;99.90;;;;;;5067226;28;20434;-84
2021/12/07 07:22:18;;;;;;;62.60;49.13;;;-0.30;99.90;;;;;;5061131;28;20403;-84
2021/12/07 07:24:45;;;;;;;63.70;49.87;;;-0.30;99.90;;;;;;5054644;28;20742;-84
2021/12/07 07:27:11;;;;;;;60.85;48.88;;;-0.30;99.90;;;;;;5053046;28;20402;-84
2021/12/07 07:29:37;;;;;;;65.05;50.03;;;-0.20;99.90;;;;;;5068163;28;20713;-84
2021/12/07 07:32:03;;;;;;;62.42;48.30;;;-0.20;99.90;;;;;;5068201;28;20737;-84
2021/12/07 07:34:28;;;;;;;63.15;48.40;;;-0.10;99.90;;;;;;5049064;28;20398;-84
2021/12/07 07:36:54;;;;;;;59.88;47.53;;;-0.10;99.90;;;;;;5047348;28;20889;-84
2021/12/07 07:39:22;;;;;;;58.67;47.47;;;0.00;99.90;;;;;;5051849;28;20386;-84
2021/12/07 07:41:48;;;;;;;61.30;47.97;;;0.10;99.90;;;;;;5066412;28;20441;-84
2021/12/07 07:44:13;;;;;;;61.78;47.05;;;0.10;99.90;;;;;;5066521;28;20495;-84
2021/12/07 07:46:39;;;;;;;61.95;48.33;;;0.10;99.90;;;;;;5049404;28;20391;-84
2021/12/07 07:49:05;;;;;;;58.50;46.78;;;0.20;99.90;;;;;;5064508;28;20392;-84
2021/12/07 07:51:32;;;;;;;58.85;46.80;;;0.20;99.90;;;;;;5068046;28;20396;-84
2021/12/07 07:53:59;;;;;;;57.67;46.70;;;0.20;99.90;;;;;;5049638;28;20391;-84
2021/12/07 07:56:29;;;;;;;57.28;45.45;;;0.20;99.90;;;;;;5057882;28;20786;-83
2021/12/07 07:58:55;;;;;;;56.13;45.35;;;0.30;99.90;;;;;;5067578;28;20417;-83
2021/12/07 08:01:23;;;;;;;59.60;47.60;;;0.30;99.90;;;;;;5063398;28;20407;-84
2021/12/07 08:03:53;;;;;;;57.42;46.78;;;0.40;99.90;;;;;;5053139;28;20384;-83
2021/12/07 08:06:18;;;;;;;55.78;45.83;;;0.40;99.90;;;;;;5051495;28;20434;-84
2021/12/07 08:08:44;;;;;;;58.28;45.25;;;0.40;99.90;;;;;;5051490;28;20421;-83
2021/12/07 08:11:09;;;;;;;58.10;46.80;;;0.40;99.90;;;;;;5051315;28;20386;-83
2021/12/07 08:13:35;;;;;;;57.57;46.00;;;0.40;99.90;;;;;;5052259;28;20908;-84
2021/12/07 08:16:01;;;;;;;58.33;46.67;;;0.40;99.90;;;;;;5051277;28;20394;-84
2021/12/07 08:18:26;;;;;;;57.13;45.92;;;0.40;99.90;;;;;;5050859;28;20380;-83
2021/12/07 08:20:52;;;;;;;58.72;46.35;;;0.40;99.90;;;;;;5054840;28;20374;-84
2021/12/07 08:23:18;;;;;;;56.65;45.75;;;0.50;99.90;;;;;;5071551;28;20401;-84
2021/12/07 08:25:46;;;;;;;57.05;45.80;;;0.50;99.90;;;;;;5070157;28;20393;-84
2021/12/07 08:28:14;;;;;;;55.53;44.43;;;0.70;99.90;;;;;;5070767;28;20389;-84
2021/12/07 08:30:41;;;;;;;57.65;46.70;;;0.60;99.90;;;;;;5058689;28;20747;-84
2021/12/07 08:33:07;;;;;;;54.67;45.30;;;0.60;99.90;;;;;;5052167;28;20390;-84
2021/12/07 08:35:34;;;;;;;56.78;46.05;;;0.60;99.90;;;;;;5052325;28;20389;-84
2021/12/07 08:38:00;;;;;;;56.95;46.88;;;0.60;99.90;;;;;;5051863;28;20929;-84
2021/12/07 08:40:28;;;;;;;54.80;44.30;;;0.60;99.90;;;;;;5050326;28;20754;-84
2021/12/07 08:42:54;;;;;;;57.30;46.13;;;0.80;99.90;;;;;;5048775;28;20414;-83
2021/12/07 08:45:23;;;;;;;54.67;45.95;;;0.80;99.90;;;;;;5064781;28;20415;-83
2021/12/07 08:47:49;;;;;;;55.15;46.45;;;0.80;99.90;;;;;;5066639;28;20415;-83
2021/12/07 08:50:22;;;;;;;54.47;44.10;;;0.90;99.90;;;;;;5066127;28;20397;-84
2021/12/07 08:52:49;;;;;;;55.67;45.65;;;0.90;99.90;;;;;;5065596;28;20495;-83
2021/12/07 09:00:32;;;;;;;56.13;44.72;;;1.00;99.90;;;;;;5068128;28;20442;-85
2021/12/07 09:02:59;;;;;;;53.67;44.60;;;1.00;99.90;;;;;;5065719;28;20402;-84
2021/12/07 09:05:24;;;;;;;55.45;44.65;;;1.10;99.90;;;;;;5066501;28;20468;-83
2021/12/07 09:07:50;;;;;;;55.50;44.97;;;1.00;99.90;;;;;;5068030;28;20462;-85
2021/12/07 09:10:17;;;;;;;52.85;43.47;;;1.00;99.90;;;;;;5066295;28;20740;-85
2021/12/07 09:12:43;;;;;;;52.53;43.97;;;1.00;99.90;;;;;;5064969;28;20889;-85
2021/12/07 09:15:10;;;;;;;53.03;43.93;;;1.00;99.90;;;;;;5064575;28;20406;-85
2021/12/07 09:17:36;;;;;;;53.65;44.15;;;1.10;99.90;;;;;;5067335;28;20893;-86
2021/12/07 09:20:10;;;;;;;54.05;44.08;;;1.20;99.90;;;;;;5066754;28;20439;-86
2021/12/07 09:22:35;;;;;;;50.80;41.65;;;1.20;99.90;;;;;;5065388;28;20451;-85
2021/12/07 09:25:01;;;;;;;54.50;43.27;;;1.40;99.90;;;;;;5066644;28;20394;-86
2021/12/07 09:27:27;;;;;;;53.83;42.83;;;1.40;99.90;;;;;;5067080;28;20452;-84
2021/12/07 09:29:53;;;;;;;52.67;44.13;;;1.40;99.90;;;;;;5064011;28;20406;-86
2021/12/07 09:32:20;;;;;;;52.08;42.95;;;1.40;99.90;;;;;;5065147;28;20370;-83
2021/12/07 09:34:46;;;;;;;53.63;42.17;;;1.30;99.90;;;;;;5063925;28;20378;-83
2021/12/07 09:37:12;;;;;;;52.97;42.63;;;1.40;99.90;;;;;;5064650;28;20379;-83
2021/12/07 09:39:38;;;;;;;51.70;43.05;;;1.40;99.90;;;;;;5066348;28;20373;-84
2021/12/07 09:42:03;;;;;;;52.03;42.40;;;1.40;99.90;;;;;;5063558;28;20397;-83
2021/12/07 09:44:29;;;;;;;48.47;41.40;;;1.40;99.90;;;;;;5065103;28;20455;-81
2021/12/07 09:46:55;;;;;;;51.13;41.03;;;1.30;99.90;;;;;;5065195;28;20370;-84
2021/12/07 09:49:20;;;;;;;51.00;42.27;;;1.30;99.90;;;;;;5066888;28;20404;-84
2021/12/07 09:51:46;;;;;;;49.67;42.03;;;1.30;99.90;;;;;;5064564;28;20378;-85
2021/12/07 09:54:13;;;;;;;50.22;40.65;;;1.30;99.90;;;;;;5065785;28;20394;-84
2021/12/07 09:56:40;;;;;;;49.88;40.80;;;1.40;99.90;;;;;;5067409;28;20856;-84
2021/12/07 09:59:08;;;;;;;48.85;40.47;;;1.30;99.90;;;;;;5064601;28;20404;-83
2021/12/07 10:01:35;;;;;;;46.37;39.13;;;1.30;99.90;;;;;;5049041;28;20394;-84
2021/12/07 10:04:01;;;;;;;49.75;40.80;;;1.30;99.90;;;;;;5064848;28;20378;-83
2021/12/07 10:06:26;;;;;;;48.70;39.33;;;1.30;99.90;;;;;;5065995;28;20382;-84
2021/12/07 10:08:52;;;;;;;50.05;41.08;;;1.30;99.90;;;;;;5062540;28;20514;-86
2021/12/07 10:11:18;;;;;;;50.25;40.65;;;1.30;99.90;;;;;;5065927;28;20524;-84
2021/12/07 10:13:47;;;;;;;47.87;40.73;;;1.20;99.90;;;;;;5064463;28;20439;-84
2021/12/07 10:16:16;;;;;;;50.88;41.72;;;1.20;99.90;;;;;;5064416;28;20389;-83
2021/12/07 10:18:43;;;;;;;50.70;41.30;;;1.20;99.90;;;;;;5062432;28;20389;-84
2021/12/07 10:21:15;;;;;;;49.88;41.22;;;1.20;99.90;;;;;;5064441;28;20414;-85
2021/12/07 10:23:45;;;;;;;51.92;42.47;;;1.30;99.90;;;;;;5064774;28;20436;-86
2021/12/07 10:26:22;;;;;;;48.53;39.95;;;1.30;99.90;;;;;;5063842;28;20384;-85
2021/12/07 10:28:54;;;;;;;48.05;40.38;;;1.50;99.90;;;;;;5052927;28;20911;-83
2021/12/07 10:31:48;;;;;;;52.83;42.13;;;1.30;99.90;;;;;;5056770;28;20383;-82
2021/12/07 10:34:29;;;;;;;49.50;39.47;;;1.40;99.90;;;;;;5063565;28;20392;-84
2021/12/07 10:37:12;;;;;;;50.75;40.75;;;1.40;99.90;;;;;;5063143;28;20873;-84
2021/12/07 10:39:40;;;;;;;46.97;39.75;;;1.40;99.90;;;;;;5067280;28;20386;-85
2021/12/07 10:42:10;;;;;;;47.67;40.22;;;1.50;99.90;;;;;;5064540;28;20829;-83
2021/12/07 10:44:39;;;;;;;49.00;40.83;;;1.50;99.90;;;;;;5068339;28;20390;-83
2021/12/07 10:47:15;;;;;;;49.47;40.67;;;1.50;99.90;;;;;;5059258;28;20472;-83
2021/12/07 10:49:50;;;;;;;47.67;40.03;;;1.60;99.90;;;;;;5059235;28;20396;-84
2021/12/07 10:52:18;;;;;;;49.83;40.85;;;1.70;99.90;;;;;;5057786;28;20399;-83
2021/12/07 10:54:48;;;;;;;49.93;41.13;;;1.60;99.90;;;;;;5049167;28;20469;-83
2021/12/07 10:57:21;;;;;;;48.00;40.13;;;1.70;99.90;;;;;;5051258;28;20443;-82
2021/12/07 10:59:58;;;;;;;51.28;41.13;;;1.70;99.90;;;;;;5047604;28;20475;-82
2021/12/07 11:02:27;;;;;;;48.60;40.67;;;1.80;99.90;;;;;;5061370;28;20451;-83
2021/12/07 11:04:54;;;;;;;49.53;41.77;;;1.90;99.90;;;;;;5048741;28;21566;-82
2021/12/07 11:07:26;;;;;;;48.27;40.30;;;1.90;99.90;;;;;;5056697;28;20398;-83
2021/12/07 11:10:14;;;;;;;51.05;42.03;;;1.90;99.90;;;;;;5067027;28;20538;-83
2021/12/07 11:13:08;;;;;;;46.30;40.20;;;1.90;99.90;;;;;;5062621;28;20393;-81
2021/12/07 11:15:42;;;;;;;48.43;40.23;;;1.90;99.90;;;;;;5061130;28;20458;-82
2021/12/07 11:18:10;;;;;;;48.65;40.55;;;2.00;99.90;;;;;;5063447;28;20401;-83
2021/12/07 11:20:37;;;;;;;50.67;41.30;;;2.00;99.90;;;;;;5053062;28;20390;-83
2021/12/07 11:23:13;;;;;;;51.13;42.30;;;1.90;99.90;;;;;;5047431;28;20816;-83
2021/12/07 11:29:39;;;;;;;48.67;41.53;;;1.90;99.90;;;;;;5052498;28;20392;-81
2021/12/07 11:31:53;;;;;;;52.60;42.22;;;1.80;99.90;;;;;;5043320;28;20746;-83
2021/12/07 11:34:40;;;;;;;52.25;43.13;;;1.80;99.90;;;;;;5048943;28;20711;-83
2021/12/07 11:37:10;;;;;;;50.00;42.13;;;1.90;99.90;;;;;;5058620;28;20386;-83
2021/12/07 11:39:48;;;;;;;48.65;39.65;;;1.90;99.90;;;;;;5047154;28;20414;-83
2021/12/07 11:42:21;;;;;;;49.03;41.88;;;1.90;99.90;;;;;;5048562;28;20392;-83
2021/12/07 11:45:22;;;;;;;49.08;40.38;;;2.00;99.90;;;;;;5048278;28;20757;-82
2021/12/07 11:47:51;;;;;;;50.40;41.22;;;2.10;99.90;;;;;;5026721;28;20434;-83
2021/12/07 11:50:22;;;;;;;48.70;40.72;;;2.00;99.90;;;;;;5053864;28;20384;-84
2021/12/07 11:52:51;;;;;;;48.45;40.83;;;2.00;99.90;;;;;;5047275;28;20394;-84
2021/12/07 11:55:17;;;;;;;50.00;41.85;;;2.00;99.90;;;;;;5062528;28;20879;-84
2021/12/07 11:57:43;;;;;;;49.22;41.60;;;2.10;99.90;;;;;;5062937;28;20451;-85
2021/12/07 12:00:13;;;;;;;50.58;40.58;;;2.10;99.90;;;;;;5061033;28;20899;-84
2021/12/07 12:02:40;;;;;;;50.35;40.85;;;2.10;99.90;;;;;;5063787;28;20772;-84
2021/12/07 12:05:07;;;;;;;50.47;42.45;;;2.00;99.90;;;;;;5063351;28;20392;-84
2021/12/07 12:07:33;;;;;;;47.40;39.70;;;2.00;99.90;;;;;;5064932;28;20386;-84
2021/12/07 12:09:59;;;;;;;47.42;40.50;;;2.10;99.90;;;;;;5063924;28;20382;-85
2021/12/07 12:12:37;;;;;;;47.80;40.40;;;2.20;99.90;;;;;;5065019;28;20933;-84
2021/12/07 12:15:19;;;;;;;48.08;40.70;;;2.20;99.90;;;;;;5061896;28;20394;-83
2021/12/07 12:18:13;;;;;;;49.22;40.92;;;2.30;99.90;;;;;;5060884;28;20382;-82
2021/12/07 12:21:11;;;;;;;49.13;40.60;;;2.30;99.90;;;;;;5065737;28;20527;-83
2021/12/07 12:23:55;;;;;;;51.87;42.00;;;2.40;99.90;;;;;;5054967;28;20391;-82
2021/12/07 12:26:24;;;;;;;50.63;42.75;;;2.30;99.90;;;;;;5061608;28;20439;-82
2021/12/07 12:28:50;;;;;;;51.03;42.78;;;2.10;99.90;;;;;;5049261;28;20397;-83
2021/12/07 12:31:39;;;;;;;50.08;42.38;;;2.20;99.90;;;;;;5065344;28;20413;-82
2021/12/07 12:34:18;;;;;;;50.78;41.70;;;2.30;99.90;;;;;;5066462;28;20437;-82
2021/12/07 12:37:20;;;;;;;48.92;40.80;;;2.10;99.90;;;;;;5066528;28;20455;-84
2021/12/07 12:40:03;;;;;;;49.40;41.58;;;2.20;99.90;;;;;;5044918;28;20382;-82
2021/12/07 12:42:36;;;;;;;50.58;41.08;;;2.20;99.90;;;;;;5059936;28;20411;-82
2021/12/07 12:45:19;;;;;;;56.63;42.78;;;2.20;99.90;;;;;;5059733;28;20394;-82
2021/12/07 12:47:52;;;;;;;51.80;42.05;;;2.30;99.90;;;;;;5067564;28;20399;-85
2021/12/07 12:50:22;;;;;;;52.35;42.25;;;2.30;99.90;;;;;;5059780;28;20817;-83
2021/12/07 12:52:53;;;;;;;49.63;41.45;;;2.30;99.90;;;;;;5052211;28;20897;-82
2021/12/07 12:55:36;;;;;;;54.05;42.28;;;2.30;99.90;;;;;;5051157;28;20475;-82
2021/12/07 12:58:07;;;;;;;56.08;42.22;;;2.20;99.90;;;;;;5066099;28;20878;-82
2021/12/07 13:01:03;;;;;;;51.17;42.25;;;2.20;99.90;;;;;;5063467;28;20477;-83
2021/12/07 13:04:00;;;;;;;50.95;42.08;;;2.10;99.90;;;;;;5058802;28;20524;-82
2021/12/07 13:06:31;;;;;;;51.10;42.38;;;2.10;99.90;;;;;;5062795;28;20398;-83
2021/12/07 13:09:22;;;;;;;53.15;43.70;;;2.10;99.90;;;;;;5051085;28;20380;-83
2021/12/07 13:12:08;;;;;;;54.72;44.10;;;2.10;99.90;;;;;;5051447;28;20387;-83
2021/12/07 13:14:39;;;;;;;55.20;44.97;;;2.00;99.90;;;;;;5059772;28;20405;-85
2021/12/07 13:17:04;;;;;;;51.08;42.47;;;2.00;99.90;;;;;;5058128;28;20391;-86
2021/12/07 13:19:51;;;;;;;53.10;43.70;;;2.00;99.90;;;;;;5050692;28;20436;-83
2021/12/07 13:22:19;;;;;;;52.45;43.15;;;2.00;99.90;;;;;;5062566;28;20451;-84
2021/12/07 13:24:46;;;;;;;51.53;41.33;;;2.10;99.90;;;;;;5061527;28;20379;-86
2021/12/07 13:27:15;;;;;;;50.22;41.83;;;2.20;99.90;;;;;;5064416;28;20374;-85
2021/12/07 13:29:46;;;;;;;50.78;41.10;;;2.30;99.90;;;;;;5063836;28;20374;-84
2021/12/07 13:32:12;;;;;;;51.03;41.55;;;2.40;99.90;;;;;;5061894;28;20382;-86
2021/12/07 13:34:40;;;;;;;49.25;40.50;;;2.50;99.90;;;;;;5062924;28;20400;-85
2021/12/07 13:37:12;;;;;;;49.95;41.38;;;2.60;99.90;;;;;;5064018;28;20875;-85
2021/12/07 13:39:48;;;;;;;50.20;40.65;;;2.60;99.90;;;;;;5061156;28;20382;-84
2021/12/07 13:42:16;;;;;;;51.38;41.72;;;2.50;99.90;;;;;;5063570;28;20402;-84
2021/12/07 13:44:51;;;;;;;50.15;41.80;;;2.40;99.90;;;;;;5064689;28;20393;-84
2021/12/07 13:47:20;;;;;;;53.33;42.45;;;2.20;99.90;;;;;;5060268;28;20390;-85
2021/12/07 13:49:49;;;;;;;51.25;42.95;;;2.20;99.90;;;;;;5059714;28;20898;-86
2021/12/07 13:52:18;;;;;;;56.60;45.42;;;2.00;99.90;;;;;;5053856;28;20737;-85
2021/12/07 13:54:47;;;;;;;53.58;44.45;;;1.90;99.90;;;;;;5056620;28;20485;-84
2021/12/07 13:57:23;;;;;;;56.43;45.20;;;1.90;99.90;;;;;;5059681;28;20948;-85
2021/12/07 14:00:23;;;;;;;52.97;44.03;;;1.90;99.90;;;;;;5051834;28;20499;-84
2021/12/07 14:02:56;;;;;;;55.45;45.20;;;2.00;99.90;;;;;;5009891;28;20413;-84
2021/12/07 14:05:29;;;;;;;55.22;44.80;;;2.00;99.90;;;;;;5062588;28;20970;-84
2021/12/07 14:07:58;;;;;;;54.13;44.80;;;2.00;99.90;;;;;;5058850;28;20833;-84
2021/12/07 14:10:30;;;;;;;48.85;41.88;;;2.10;99.90;;;;;;5057373;28;20891;-85
2021/12/07 14:12:59;;;;;;;52.70;42.72;;;2.00;99.90;;;;;;5043630;28;20395;-85
2021/12/07 14:15:51;;;;;;;51.72;41.95;;;1.90;99.90;;;;;;5057875;28;20399;-84
2021/12/07 14:18:23;;;;;;;59.58;45.88;;;1.80;99.90;;;;;;5055359;28;20412;-84
2021/12/07 14:20:57;;;;;;;60.10;45.95;;;1.60;99.90;;;;;;5055867;28;20964;-84
2021/12/07 14:23:33;;;;;;;58.85;45.67;;;1.70;99.90;;;;;;5059002;28;20442;-86
2021/12/07 14:26:20;;;;;;;64.50;48.83;;;1.60;99.90;;;;;;5054950;28;20395;-84